Time;durP1;ratioP1;P1;durP2;ratioP2;P2;SDS_P1;SDS_P2;PMS_P1;PMS_P2;Temp;Humidity;BMP_temperature;BMP_pressure;BME280_temperature;BME280_humidity;BME280_pressure;Samples;Min_cycle;Max_cycle;Signal;HPM_P1;HPM_P2
2022/11/04 00:01:49;;;;;;;48.95;28.12;;;;;;;6.72;100.00;97543.77;1712693;83;21434;-79
2022/11/04 00:04:17;;;;;;;50.12;30.12;;;;;;;6.72;100.00;97543.23;1712419;82;20997;-82
2022/11/04 00:06:43;;;;;;;52.90;29.10;;;;;;;6.74;100.00;97547.80;1713126;83;20958;-79
2022/11/04 00:09:12;;;;;;;48.85;27.87;;;;;;;6.76;100.00;97541.64;1712627;82;20883;-82
2022/11/04 00:14:22;;;;;;;53.20;27.70;;;;;;;6.71;100.00;97532.73;1712480;82;21045;-80
2022/11/04 00:28:41;;;;;;;60.17;29.18;;;;;;;6.60;100.00;97527.06;1712546;83;21006;-78
2022/11/04 00:30:13;;;;;;;48.75;23.92;;;;;;;6.52;100.00;97513.58;1712625;83;21030;-78
2022/11/04 00:35:24;;;;;;;37.85;21.10;;;;;;;6.44;100.00;97504.13;1718010;83;21008;-79
2022/11/04 00:37:50;;;;;;;37.50;19.02;;;;;;;6.43;100.00;97499.02;1719480;83;21051;-78
2022/11/04 00:40:16;;;;;;;33.48;18.37;;;;;;;6.44;100.00;97494.72;1719535;83;21330;-78
2022/11/04 00:42:43;;;;;;;28.42;16.40;;;;;;;6.44;100.00;97481.26;1719560;83;21001;-81
2022/11/04 00:45:09;;;;;;;31.50;17.92;;;;;;;6.42;100.00;97483.41;1719518;83;21444;-79
2022/11/04 00:47:36;;;;;;;32.85;16.52;;;;;;;6.45;100.00;97475.34;1719379;83;21428;-81
2022/11/04 00:50:02;;;;;;;24.87;15.23;;;;;;;6.43;100.00;97464.84;1719635;83;21167;-79
2022/11/04 00:52:28;;;;;;;22.42;14.47;;;;;;;6.44;100.00;97458.38;1719489;83;20992;-82
2022/11/04 00:54:54;;;;;;;25.60;14.35;;;;;;;6.47;100.00;97461.88;1719507;83;20892;-81
2022/11/04 00:57:20;;;;;;;35.00;18.15;;;;;;;6.49;100.00;97458.41;1719492;83;20900;-81
2022/11/04 00:59:46;;;;;;;35.10;17.35;;;;;;;6.50;100.00;97456.52;1719726;83;20892;-81
2022/11/04 01:02:12;;;;;;;33.25;16.25;;;;;;;6.54;100.00;97451.39;1719506;83;21144;-82
2022/11/04 01:04:38;;;;;;;54.53;22.75;;;;;;;6.54;100.00;97454.09;1719376;83;21417;-82
2022/11/04 01:07:04;;;;;;;57.75;23.52;;;;;;;6.52;100.00;97450.86;1719480;83;20972;-82
2022/11/04 01:09:30;;;;;;;41.75;19.67;;;;;;;6.52;100.00;97444.12;1719484;83;21008;-78
2022/11/04 01:11:56;;;;;;;25.88;14.15;;;;;;;6.50;100.00;97446.56;1719340;83;20900;-78
2022/11/04 01:14:22;;;;;;;31.55;16.12;;;;;;;6.51;100.00;97441.98;1719232;83;21031;-83
2022/11/04 01:16:49;;;;;;;32.00;18.80;;;;;;;6.52;100.00;97444.94;1719455;83;20893;-79
2022/11/04 01:19:15;;;;;;;33.55;17.62;;;;;;;6.44;100.00;97436.84;1719087;83;21008;-82
2022/11/04 01:21:41;;;;;;;24.37;16.00;;;;;;;6.45;100.00;97438.46;1719491;83;21019;-78
2022/11/04 01:24:07;;;;;;;28.57;17.00;;;;;;;6.46;100.00;97440.61;1719285;83;20884;-79
2022/11/04 01:26:33;;;;;;;35.68;18.87;;;;;;;6.43;100.00;97436.58;1715316;83;21165;-82
2022/11/04 01:28:59;;;;;;;31.35;17.80;;;;;;;6.47;100.00;97435.50;1712497;82;20970;-82
2022/11/04 01:31:27;;;;;;;27.37;17.48;;;;;;;6.52;100.00;97438.75;1723622;82;20984;-78
2022/11/04 01:33:53;;;;;;;32.42;16.65;;;;;;;6.57;100.00;97423.93;1737647;81;21000;-79
2022/11/04 01:36:20;;;;;;;25.45;15.20;;;;;;;6.59;100.00;97432.03;1714496;83;20970;-82
2022/11/04 01:38:46;;;;;;;30.72;15.23;;;;;;;6.63;100.00;97425.02;1714139;83;21291;-78
2022/11/04 01:41:22;;;;;;;25.35;14.78;;;;;;;6.66;100.00;97427.16;1714287;82;21013;-79
2022/11/04 01:44:21;;;;;;;31.85;16.95;;;;;;;6.68;100.00;97430.95;1714251;82;21033;-80
2022/11/04 01:46:49;;;;;;;33.90;17.15;;;;;;;6.66;100.00;97436.59;1714602;82;21940;-81
2022/11/04 01:49:34;;;;;;;45.70;22.22;;;;;;;6.67;100.00;97425.30;1714154;82;21236;-82
2022/11/04 01:52:04;;;;;;;36.48;19.20;;;;;;;6.71;100.00;97419.64;1714227;83;21100;-82
2022/11/04 01:54:30;;;;;;;46.60;19.37;;;;;;;6.70;100.00;97415.34;1713222;82;20959;-79
2022/11/04 01:56:56;;;;;;;37.90;20.05;;;;;;;6.71;100.00;97411.56;1714388;83;20961;-79
2022/11/04 01:59:26;;;;;;;35.80;19.57;;;;;;;6.72;100.00;97403.20;1714086;83;20930;-82
2022/11/04 02:01:53;;;;;;;35.23;20.15;;;;;;;6.74;100.00;97406.97;1714127;82;20993;-81
2022/11/04 02:04:24;;;;;;;29.72;17.10;;;;;;;6.74;100.00;97403.74;1714077;83;21287;-82
2022/11/04 02:06:56;;;;;;;29.27;16.80;;;;;;;6.74;100.00;97405.09;1714346;83;21466;-78
2022/11/04 02:09:24;;;;;;;29.20;15.60;;;;;;;6.72;100.00;97399.17;1713369;82;21050;-82
2022/11/04 02:14:27;;;;;;;30.17;14.47;;;;;;;6.72;100.00;97399.71;1697286;83;21026;-82
2022/11/04 02:16:56;;;;;;;32.20;17.67;;;;;;;6.63;100.00;97384.64;1714327;83;21000;-79
2022/11/04 02:20:18;;;;;;;28.15;16.07;;;;;;;6.63;100.00;97387.33;1713786;83;21041;-82
2022/11/04 02:23:25;;;;;;;20.55;13.40;;;;;;;6.66;100.00;97389.47;1714299;82;21493;-78
2022/11/04 02:26:13;;;;;;;26.05;14.53;;;;;;;6.61;100.00;97366.61;1714274;83;21014;-82
2022/11/04 02:29:11;;;;;;;27.65;15.88;;;;;;;6.61;100.00;97378.72;1714211;83;21009;-78
2022/11/04 02:32:04;;;;;;;24.30;13.80;;;;;;;6.61;100.00;97366.61;1707045;82;21130;-79
2022/11/04 02:34:50;;;;;;;21.10;12.00;;;;;;;6.61;100.00;97371.98;1703208;83;20969;-79
2022/11/04 02:37:50;;;;;;;32.20;18.10;;;;;;;6.59;100.00;97358.54;1712681;82;21030;-82
2022/11/04 02:40:42;;;;;;;38.05;20.05;;;;;;;6.59;100.00;97367.96;1712568;83;20998;-82
2022/11/04 02:43:16;;;;;;;34.50;19.45;;;;;;;6.57;100.00;97360.67;1712607;82;21428;-83
2022/11/04 02:45:48;;;;;;;29.72;16.27;;;;;;;6.58;100.00;97364.47;1712017;83;21174;-82
2022/11/04 02:48:44;;;;;;;29.23;15.95;;;;;;;6.56;100.00;97348.29;1712290;82;21458;-82
2022/11/04 02:51:18;;;;;;;34.70;17.25;;;;;;;6.52;100.00;97348.03;1712465;83;21455;-81
2022/11/04 02:54:01;;;;;;;32.55;18.90;;;;;;;6.52;100.00;97364.19;1712486;82;21006;-79
2022/11/04 02:56:27;;;;;;;33.08;16.00;;;;;;;6.51;100.00;97355.84;1712971;83;21014;-82
2022/11/04 02:58:56;;;;;;;30.82;14.78;;;;;;;6.45;100.00;97359.06;1712548;82;21145;-82
2022/11/04 03:01:22;;;;;;;27.22;13.88;;;;;;;6.44;100.00;97354.77;1712399;83;21010;-82
2022/11/04 03:03:53;;;;;;;23.65;12.55;;;;;;;6.41;100.00;97348.58;1712479;82;20899;-82
2022/11/04 03:06:22;;;;;;;20.57;11.00;;;;;;;6.34;100.00;97338.62;1712824;83;21521;-78
2022/11/04 03:08:50;;;;;;;18.30;9.33;;;;;;;6.28;100.00;97329.45;1712692;82;21038;-82
2022/11/04 03:11:20;;;;;;;20.60;8.68;;;;;;;6.28;100.00;97329.45;1712974;83;21474;-82
2022/11/04 03:14:18;;;;;;;16.97;8.65;;;;;;;6.26;100.00;97316.82;1712319;82;21073;-83
2022/11/04 03:16:56;;;;;;;21.20;12.70;;;;;;;6.25;100.00;97330.01;1700769;83;21013;-80
2022/11/04 03:19:45;;;;;;;31.70;15.97;;;;;;;6.17;100.00;97316.00;1712687;82;21006;-82
2022/11/04 03:22:17;;;;;;;38.88;21.73;;;;;;;6.18;100.00;97330.27;1712760;82;21712;-78
2022/11/04 03:24:44;;;;;;;57.13;31.55;;;;;;;6.22;100.00;97338.05;1712203;83;21150;-78
2022/11/04 03:27:19;;;;;;;78.28;41.23;;;;;;;6.18;100.00;97341.83;1712690;82;21057;-81
2022/11/04 03:30:11;;;;;;;85.67;41.60;;;;;;;6.08;100.00;97333.75;1712529;83;21002;-79
2022/11/04 03:33:00;;;;;;;51.02;24.47;;;;;;;6.01;100.00;97327.02;1714060;83;20951;-79
2022/11/04 03:35:26;;;;;;;22.20;13.60;;;;;;;5.97;100.00;97326.72;1713208;82;21033;-81
2022/11/04 03:37:52;;;;;;;33.80;16.00;;;;;;;5.94;100.00;97315.16;1712485;82;21022;-81
2022/11/04 03:40:19;;;;;;;48.33;20.62;;;;;;;5.91;100.00;97309.80;1712628;83;21013;-78
2022/11/04 03:42:56;;;;;;;36.65;17.87;;;;;;;5.86;100.00;97305.70;1712689;82;21438;-79
2022/11/04 03:45:22;;;;;;;14.95;9.15;;;;;;;5.83;100.00;97293.34;1712639;83;21007;-78
2022/11/04 03:47:49;;;;;;;15.83;7.37;;;;;;;5.83;100.00;97296.84;1692198;83;21461;-82
2022/11/04 03:50:29;;;;;;;13.53;6.72;;;;;;;5.88;100.00;97285.27;1712849;83;21168;-78
2022/11/04 03:52:56;;;;;;;14.38;5.78;;;;;;;5.89;100.00;97282.84;1712355;82;21007;-82
2022/11/04 03:55:46;;;;;;;17.82;8.73;;;;;;;5.94;100.00;97282.36;1712696;83;21013;-78
2022/11/04 03:58:50;;;;;;;18.15;9.55;;;;;;;5.98;100.00;97282.61;1711958;82;21656;-82
2022/11/04 04:01:42;;;;;;;15.10;8.50;;;;;;;5.97;100.00;97276.16;1712750;83;21025;-82
2022/11/04 04:04:30;;;;;;;21.62;9.93;;;;;;;5.89;100.00;97277.47;1691740;83;21057;-78
2022/11/04 04:07:06;;;;;;;16.45;8.35;;;;;;;5.88;100.00;97275.31;1712532;83;20983;-81
2022/11/04 04:09:40;;;;;;;11.45;7.28;;;;;;;5.85;100.00;97273.17;1712644;83;20998;-81
2022/11/04 04:12:28;;;;;;;14.53;9.68;;;;;;;5.81;100.00;97275.30;1677491;85;21471;-82
2022/11/04 04:14:58;;;;;;;28.67;17.10;;;;;;;5.81;100.00;97277.48;1712382;83;21034;-78
2022/11/04 04:17:40;;;;;;;24.32;13.15;;;;;;;5.82;100.00;97280.98;1712655;82;21191;-82
2022/11/04 04:20:15;;;;;;;25.50;13.30;;;;;;;5.79;100.00;97278.80;1712267;83;20982;-79
2022/11/04 04:22:46;;;;;;;28.17;15.75;;;;;;;5.76;100.00;97276.66;1712819;82;20998;-82
2022/11/04 04:27:56;;;;;;;24.92;14.43;;;;;;;5.79;100.00;97285.52;1712982;82;21104;-79
2022/11/04 04:30:22;;;;;;;27.17;13.20;;;;;;;5.78;100.00;97279.34;1712561;83;21128;-78
2022/11/04 04:33:03;;;;;;;23.73;12.20;;;;;;;5.80;100.00;97278.53;1713934;83;20887;-78
2022/11/04 04:35:40;;;;;;;22.40;11.97;;;;;;;5.83;100.00;97277.21;1712638;82;21272;-78
2022/11/04 04:46:50;;;;;;;21.80;10.98;;;;;;;5.98;100.00;97261.64;1712600;83;20955;-82
2022/11/04 04:49:16;;;;;;;35.63;13.50;;;;;;;6.02;100.00;97268.11;1691383;83;20990;-78
2022/11/04 04:51:45;;;;;;;31.57;14.75;;;;;;;5.96;100.00;97269.98;1712793;83;20894;-78
2022/11/04 04:54:10;;;;;;;29.07;13.93;;;;;;;5.90;100.00;97252.22;1711109;82;21062;-81
2022/11/04 04:56:36;;;;;;;41.60;16.50;;;;;;;5.83;100.00;97252.48;1683961;84;21146;-78
2022/11/04 04:59:02;;;;;;;52.03;21.35;;;;;;;5.81;100.00;97257.83;1709869;82;21605;-81
2022/11/04 05:01:28;;;;;;;30.40;15.15;;;;;;;5.78;100.00;97260.52;1712697;83;20930;-78
2022/11/04 05:03:54;;;;;;;36.55;14.03;;;;;;;5.81;100.00;97257.32;1712509;82;21600;-78
2022/11/04 05:06:20;;;;;;;28.55;13.38;;;;;;;5.82;100.00;97271.03;1712933;83;20878;-79
2022/11/04 05:08:46;;;;;;;29.50;14.20;;;;;;;5.80;100.00;97263.75;1712485;82;21248;-82
2022/11/04 05:11:12;;;;;;;23.15;12.65;;;;;;;5.80;100.00;97256.22;1712724;83;21012;-78
2022/11/04 05:13:38;;;;;;;22.73;12.47;;;;;;;5.79;100.00;97264.83;1712532;82;20914;-82
2022/11/04 05:16:08;;;;;;;27.25;11.93;;;;;;;5.78;100.00;97264.56;1712753;83;20954;-81
2022/11/04 05:18:34;;;;;;;25.35;13.53;;;;;;;5.73;100.00;97265.91;1712465;82;20967;-81
2022/11/04 05:21:05;;;;;;;21.80;12.20;;;;;;;5.70;100.00;97269.66;1712805;83;21438;-81
2022/11/04 05:23:31;;;;;;;30.62;13.13;;;;;;;5.66;100.00;97268.05;1712351;82;20963;-81
2022/11/04 05:25:58;;;;;;;29.75;12.28;;;;;;;5.62;100.00;97265.06;1712671;83;21393;-81
2022/11/04 05:28:24;;;;;;;23.22;11.18;;;;;;;5.61;100.00;97266.67;1712381;82;21026;-82
2022/11/04 05:30:50;;;;;;;23.27;10.80;;;;;;;5.56;100.00;97255.40;1712874;83;20943;-81
2022/11/04 05:33:15;;;;;;;19.10;10.68;;;;;;;5.55;100.00;97264.50;1714207;83;21205;-78
2022/11/04 05:35:41;;;;;;;23.40;12.43;;;;;;;5.54;100.00;97268.27;1718081;83;20927;-82
2022/11/04 05:38:07;;;;;;;25.90;12.18;;;;;;;5.56;100.00;97268.03;1719065;83;20861;-78
2022/11/04 05:40:33;;;;;;;27.32;13.58;;;;;;;5.53;100.00;97260.48;1719155;83;20948;-82
2022/11/04 05:42:59;;;;;;;31.68;14.90;;;;;;;5.50;100.00;97261.83;1702443;82;21626;-78
2022/11/04 05:45:27;;;;;;;41.23;18.02;;;;;;;5.47;100.00;97275.80;1706832;82;21068;-78
2022/11/04 05:48:00;;;;;;;48.70;18.82;;;;;;;5.45;100.00;97265.83;1714091;82;21021;-82
2022/11/04 05:50:26;;;;;;;41.23;17.40;;;;;;;5.44;100.00;97281.69;1711548;83;21069;-81
2022/11/04 05:52:52;;;;;;;45.67;19.70;;;;;;;5.40;100.00;97271.75;1710081;82;21043;-81
2022/11/04 05:55:18;;;;;;;38.28;16.12;;;;;;;5.37;100.00;97275.20;1710066;82;21024;-81
2022/11/04 05:57:44;;;;;;;34.63;15.63;;;;;;;5.29;100.00;97264.16;1712378;82;21095;-82
2022/11/04 06:00:11;;;;;;;34.63;15.55;;;;;;;5.30;100.00;97274.67;1709708;82;20968;-78
2022/11/04 06:02:37;;;;;;;38.80;16.82;;;;;;;5.32;100.00;97272.52;1721950;82;21486;-78
2022/11/04 06:05:04;;;;;;;28.62;15.00;;;;;;;5.36;100.00;97272.25;1711324;82;20870;-78
2022/11/04 06:07:29;;;;;;;28.40;14.95;;;;;;;5.36;100.00;97271.45;1712153;83;21009;-78
2022/11/04 06:09:55;;;;;;;27.95;12.43;;;;;;;5.38;100.00;97274.67;1708896;82;21076;-78
2022/11/04 06:12:21;;;;;;;29.72;13.32;;;;;;;5.37;100.00;97275.20;1701011;80;20877;-78
2022/11/04 06:14:47;;;;;;;40.52;17.10;;;;;;;5.38;100.00;97274.67;1745867;81;21531;-82
2022/11/04 06:17:15;;;;;;;59.13;23.10;;;;;;;5.38;100.00;97280.05;1701978;83;20883;-82
2022/11/04 06:19:41;;;;;;;39.13;16.40;;;;;;;5.34;100.00;97278.97;1703024;82;21036;-82
2022/11/04 06:22:11;;;;;;;24.77;11.55;;;;;;;5.36;100.00;97284.34;1694419;82;21238;-78
2022/11/04 06:24:37;;;;;;;20.77;10.00;;;;;;;5.36;100.00;97283.54;1682478;82;21394;-82
2022/11/04 06:27:03;;;;;;;21.95;11.08;;;;;;;5.42;100.00;97279.00;1696489;82;21588;-78
2022/11/04 06:29:29;;;;;;;26.57;10.35;;;;;;;5.51;100.00;97288.97;1689072;82;20951;-81
2022/11/04 06:31:55;;;;;;;27.48;10.48;;;;;;;5.60;100.00;97282.54;1710445;82;21556;-81
2022/11/04 06:34:21;;;;;;;120.80;47.88;;;;;;;5.66;100.00;97290.36;1716932;82;21188;-78
2022/11/04 06:36:49;;;;;;;98.95;42.45;;;;;;;5.78;100.00;97294.67;1703986;82;21607;-82
2022/11/04 06:39:15;;;;;;;82.57;37.28;;;;;;;6.03;100.00;97288.02;1713334;82;21107;-78
2022/11/04 06:41:41;;;;;;;41.15;19.37;;;;;;;6.31;100.00;97283.97;1706504;82;20866;-82
2022/11/04 06:44:07;;;;;;;38.15;18.92;;;;;;;6.44;100.00;97290.71;1711999;82;20969;-79
2022/11/04 06:46:41;;;;;;;34.27;15.83;;;;;;;6.47;100.00;97280.20;1710129;82;21164;-82
2022/11/04 06:49:11;;;;;;;40.17;19.90;;;;;;;6.54;100.00;97281.81;1710047;81;21120;-79
2022/11/04 06:51:37;;;;;;;41.65;20.48;;;;;;;6.63;100.00;97280.98;1696923;82;21445;-82
2022/11/04 06:54:03;;;;;;;56.23;28.05;;;;;;;6.66;100.00;97269.66;1698690;82;21049;-82
2022/11/04 06:56:29;;;;;;;56.45;28.62;;;;;;;6.65;100.00;97264.56;1705789;82;20976;-82
2022/11/04 06:58:55;;;;;;;54.53;29.18;;;;;;;6.70;100.00;97272.64;1703136;82;21051;-82
2022/11/04 07:01:24;;;;;;;52.10;25.85;;;;;;;6.71;100.00;97275.59;1712069;82;21036;-82
2022/11/04 07:03:51;;;;;;;48.13;25.92;;;;;;;6.71;100.00;97264.28;1717894;82;25897;-77
2022/11/04 07:06:18;;;;;;;40.92;19.92;;;;;;;6.68;100.00;97268.06;1699417;83;21534;-78
2022/11/04 07:08:45;;;;;;;39.85;22.22;;;;;;;6.63;100.00;97258.10;1714066;82;21166;-78
2022/11/04 07:11:11;;;;;;;53.92;26.80;;;;;;;6.63;100.00;97258.64;1692577;83;21153;-78
2022/11/04 07:13:37;;;;;;;70.10;34.48;;;;;;;6.65;100.00;97269.40;1703735;83;21011;-78
2022/11/04 07:16:07;;;;;;;54.23;28.62;;;;;;;6.69;100.00;97262.41;1708706;82;20912;-79
2022/11/04 07:18:33;;;;;;;43.80;24.20;;;;;;;6.71;100.00;97263.48;1710609;82;21104;-82
2022/11/04 07:20:58;;;;;;;43.52;21.10;;;;;;;6.70;100.00;97253.25;1705888;82;20922;-82
2022/11/04 07:23:24;;;;;;;37.58;17.42;;;;;;;6.68;100.00;97250.57;1693792;82;21175;-82
2022/11/04 07:25:50;;;;;;;28.73;16.00;;;;;;;6.71;100.00;97253.52;1706179;83;20893;-78
2022/11/04 07:28:16;;;;;;;32.10;16.82;;;;;;;6.76;100.00;97248.13;1706568;82;20963;-78
2022/11/04 07:30:42;;;;;;;38.15;19.92;;;;;;;6.81;100.00;97241.91;1708191;82;20847;-82
2022/11/04 07:33:08;;;;;;;34.10;18.15;;;;;;;6.92;100.00;97239.47;1699542;82;21083;-79
2022/11/04 07:35:35;;;;;;;26.05;15.25;;;;;;;7.03;100.00;97236.19;1703374;82;21157;-82
2022/11/04 07:38:02;;;;;;;29.20;15.78;;;;;;;7.15;100.00;97238.55;1705526;82;21460;-78
2022/11/04 07:40:30;;;;;;;28.73;15.05;;;;;;;7.26;100.00;97236.06;1707650;82;21501;-79
2022/11/04 07:42:56;;;;;;;23.92;14.73;;;;;;;7.40;100.00;97230.88;1712720;82;21081;-78
2022/11/04 07:45:21;;;;;;;18.10;11.10;;;;;;;7.50;100.00;97229.47;1722019;81;21595;-82
2022/11/04 07:47:47;;;;;;;18.27;10.93;;;;;;;7.64;100.00;97225.88;1710101;82;21156;-79
2022/11/04 07:50:13;;;;;;;18.05;9.83;;;;;;;7.79;100.00;97220.94;1709255;82;21584;-79
2022/11/04 07:52:39;;;;;;;21.00;10.43;;;;;;;7.97;100.00;97227.55;1709225;82;20903;-82
2022/11/04 07:55:06;;;;;;;102.78;42.15;;;;;;;8.20;100.00;97218.72;1710848;83;21046;-82
2022/11/04 07:57:31;;;;;;;24.77;13.48;;;;;;;8.66;100.00;97212.09;1707366;82;21020;-82
2022/11/04 07:59:58;;;;;;;32.05;14.80;;;;;;;8.66;100.00;97212.09;1706949;82;21219;-82
2022/11/04 08:02:24;;;;;;;21.35;10.48;;;;;;;8.97;100.00;97216.59;1708845;82;21083;-82
2022/11/04 08:04:50;;;;;;;23.18;12.65;;;;;;;9.21;100.00;97211.16;1705136;82;21492;-82
2022/11/04 08:07:16;;;;;;;16.60;8.90;;;;;;;9.44;100.00;97210.87;1696364;82;21008;-79
2022/11/04 08:09:41;;;;;;;15.18;8.40;;;;;;;9.68;100.00;97202.14;1709402;82;20894;-82
2022/11/04 08:12:07;;;;;;;15.13;9.05;;;;;;;9.92;100.00;97203.40;1711351;80;21177;-81
2022/11/04 08:14:33;;;;;;;17.73;9.70;;;;;;;10.15;99.19;97195.69;1706164;82;21642;-82
2022/11/04 08:16:59;;;;;;;11.95;6.83;;;;;;;10.34;97.93;97190.80;1706229;82;20917;-79
2022/11/04 08:19:25;;;;;;;13.80;8.23;;;;;;;10.51;96.82;97193.77;1709601;82;21648;-82
2022/11/04 08:21:51;;;;;;;21.55;9.05;;;;;;;10.66;97.44;97183.17;1702394;82;21104;-82
2022/11/04 08:24:17;;;;;;;15.68;8.78;;;;;;;10.84;97.35;97185.53;1705420;82;21000;-79
2022/11/04 08:26:45;;;;;;;27.58;14.25;;;;;;;11.01;96.05;97181.66;1708150;82;20913;-79
2022/11/04 08:29:10;;;;;;;23.83;12.58;;;;;;;11.16;97.11;97175.92;1711998;82;20998;-82
2022/11/04 08:31:36;;;;;;;20.88;12.25;;;;;;;11.34;96.56;97181.52;1712201;82;21508;-82
2022/11/04 08:34:04;;;;;;;30.25;16.35;;;;;;;11.56;96.41;97174.80;1703299;82;20917;-83
2022/11/04 08:36:39;;;;;;;16.50;8.90;;;;;;;11.77;95.85;97165.06;1707059;82;21096;-79
2022/11/04 08:39:06;;;;;;;20.05;10.48;;;;;;;12.05;94.69;97169.06;1710725;82;21186;-83
2022/11/04 08:41:33;;;;;;;9.83;6.65;;;;;;;12.35;92.65;97167.47;1709228;82;20977;-83
2022/11/04 08:43:59;;;;;;;7.37;5.17;;;;;;;12.62;90.53;97167.84;1708522;82;21504;-82
2022/11/04 08:46:30;;;;;;;17.80;9.83;;;;;;;12.86;88.59;97169.62;1700692;82;20998;-80
2022/11/04 08:48:56;;;;;;;11.85;6.10;;;;;;;13.00;87.87;97162.72;1699554;82;21393;-83
2022/11/04 08:51:24;;;;;;;12.75;7.10;;;;;;;13.11;86.45;97162.66;1689687;82;20891;-83
2022/11/04 08:53:50;;;;;;;16.65;7.30;;;;;;;13.23;86.21;97161.50;1710182;82;20982;-79
2022/11/04 08:56:23;;;;;;;11.78;7.10;;;;;;;13.37;84.01;97160.01;1707624;82;21393;-79
2022/11/04 08:58:49;;;;;;;11.00;6.20;;;;;;;13.48;83.99;97162.66;1705253;82;20960;-83
2022/11/04 09:01:15;;;;;;;11.78;6.72;;;;;;;13.58;84.51;97145.77;1680573;82;21563;-83
2022/11/04 09:03:41;;;;;;;12.03;7.00;;;;;;;13.70;83.54;97134.49;1724116;82;21024;-80
2022/11/04 09:06:10;;;;;;;10.88;6.47;;;;;;;13.86;83.53;97139.45;1709893;82;21407;-79
2022/11/04 09:08:38;;;;;;;12.78;7.22;;;;;;;13.96;83.36;97129.59;1714666;82;21067;-79
2022/11/04 09:11:08;;;;;;;13.03;6.90;;;;;;;14.05;82.56;97129.80;1707591;82;21580;-79
2022/11/04 09:13:35;;;;;;;10.55;5.22;;;;;;;14.15;81.92;97124.57;1703120;82;21319;-83
2022/11/04 09:16:01;;;;;;;10.35;6.10;;;;;;;14.29;81.09;97127.11;1709717;82;21027;-83
2022/11/04 09:18:27;;;;;;;10.13;5.65;;;;;;;14.38;81.62;97115.62;1707828;82;20920;-79
2022/11/04 09:20:53;;;;;;;8.03;5.30;;;;;;;14.52;81.70;97113.50;1699882;82;20990;-79
2022/11/04 09:23:18;;;;;;;9.63;5.25;;;;;;;14.68;81.20;97108.30;1708201;82;20890;-79
2022/11/04 09:25:44;;;;;;;9.53;6.15;;;;;;;14.91;79.42;97104.17;1706975;82;21045;-83
2022/11/04 09:28:10;;;;;;;29.87;13.22;;;;;;;15.08;80.11;97103.27;1709230;82;20890;-83
2022/11/04 09:30:37;;;;;;;13.88;7.55;;;;;;;15.21;79.46;97094.59;1704790;82;21032;-83
2022/11/04 09:33:03;;;;;;;13.38;7.47;;;;;;;15.28;78.05;97094.86;1712862;82;21030;-83
2022/11/04 09:35:29;;;;;;;8.18;5.25;;;;;;;15.43;76.68;97090.17;1707618;82;21044;-82
2022/11/04 09:37:55;;;;;;;10.23;5.80;;;;;;;15.57;75.63;97090.48;1714032;82;21073;-79
2022/11/04 09:40:23;;;;;;;13.62;5.65;;;;;;;15.65;77.18;97084.18;1711727;82;20930;-83
2022/11/04 09:43:07;;;;;;;9.90;6.28;;;;;;;15.73;77.23;97079.21;1708170;82;21077;-83
2022/11/04 09:45:33;;;;;;;14.28;6.42;;;;;;;15.79;78.19;97077.28;1647324;85;21112;-82
2022/11/04 09:48:04;;;;;;;12.23;5.92;;;;;;;15.85;77.59;97081.17;1710453;82;21029;-79
2022/11/04 09:50:34;;;;;;;10.30;5.00;;;;;;;15.89;75.93;97076.05;1698370;82;21074;-82
2022/11/04 09:53:08;;;;;;;22.25;9.75;;;;;;;15.99;74.14;97073.48;1704915;82;20993;-83
2022/11/04 09:55:52;;;;;;;14.10;6.75;;;;;;;16.04;75.72;97065.06;1704402;82;21029;-79
2022/11/04 09:58:18;;;;;;;13.20;6.58;;;;;;;16.08;75.25;97067.36;1703748;82;21100;-79
2022/11/04 10:00:52;;;;;;;9.63;5.45;;;;;;;16.15;74.40;97064.05;1669431;83;20905;-79
2022/11/04 10:03:40;;;;;;;10.00;4.70;;;;;;;16.22;74.36;97056.89;1705125;82;21033;-83
2022/11/04 10:06:48;;;;;;;18.67;10.32;;;;;;;16.30;73.35;97056.00;1712472;82;21016;-82
2022/11/04 10:09:31;;;;;;;13.38;7.25;;;;;;;16.41;73.54;97045.44;1654330;82;21020;-79
2022/11/04 10:12:23;;;;;;;15.05;7.97;;;;;;;16.53;73.99;97045.43;1706479;82;21039;-79
2022/11/04 10:15:35;;;;;;;12.43;5.92;;;;;;;16.60;74.25;97047.03;1704682;82;21650;-79
2022/11/04 10:18:16;;;;;;;7.37;4.25;;;;;;;16.78;73.24;97048.19;1703659;82;21925;-79
2022/11/04 10:20:53;;;;;;;7.17;5.05;;;;;;;17.02;72.15;97054.22;1698439;83;21024;-83
2022/11/04 10:23:43;;;;;;;7.45;4.42;;;;;;;17.19;71.50;97046.53;1704976;82;20974;-83
2022/11/04 10:26:18;;;;;;;9.58;4.47;;;;;;;17.28;72.12;97044.23;1708709;82;21148;-83
2022/11/04 10:29:00;;;;;;;10.63;3.77;;;;;;;17.33;70.50;97052.98;1708645;82;21029;-83
2022/11/04 10:31:26;;;;;;;7.37;4.53;;;;;;;17.35;67.94;97050.72;1701080;82;21127;-83
2022/11/04 10:34:01;;;;;;;6.70;4.10;;;;;;;17.32;70.62;97043.17;1677732;83;20878;-83
2022/11/04 10:36:27;;;;;;;9.70;4.42;;;;;;;17.31;66.98;97051.17;1698307;82;21524;-80
2022/11/04 10:38:54;;;;;;;10.03;4.92;;;;;;;17.24;67.61;97054.27;1703125;82;20854;-80
2022/11/04 10:41:29;;;;;;;7.33;3.58;;;;;;;17.17;66.71;97052.11;1703568;82;21004;-79
2022/11/04 10:43:59;;;;;;;10.30;4.03;;;;;;;17.08;64.10;97051.45;1698361;82;21116;-80
2022/11/04 10:46:37;;;;;;;6.42;3.85;;;;;;;17.03;67.31;97048.96;1696086;83;21416;-83
2022/11/04 10:49:20;;;;;;;10.35;4.12;;;;;;;16.93;66.77;97050.23;1683676;82;21017;-83
2022/11/04 10:51:46;;;;;;;9.33;4.72;;;;;;;16.85;66.95;97056.05;1701082;82;21020;-83
2022/11/04 10:54:12;;;;;;;7.22;4.42;;;;;;;16.76;67.36;97056.75;1704640;82;20972;-79
2022/11/04 10:56:48;;;;;;;8.53;4.55;;;;;;;16.68;66.91;97048.63;1701912;82;21405;-79
2022/11/04 10:59:30;;;;;;;8.35;4.58;;;;;;;16.61;67.21;97042.36;1705849;82;20973;-79
2022/11/04 11:01:58;;;;;;;9.13;4.00;;;;;;;16.57;67.55;97042.22;1700438;82;21112;-83
2022/11/04 11:04:32;;;;;;;8.80;4.35;;;;;;;16.53;67.77;97040.53;1701548;82;21041;-79
2022/11/04 11:07:06;;;;;;;24.52;14.93;;;;;;;16.49;67.42;97044.53;1700100;82;20995;-83
2022/11/04 11:09:34;;;;;;;10.30;5.03;;;;;;;16.48;67.35;97044.84;1691115;82;21154;-83
2022/11/04 11:12:16;;;;;;;10.28;5.33;;;;;;;16.49;68.01;97032.23;1705075;82;20937;-79
2022/11/04 11:14:42;;;;;;;8.53;4.95;;;;;;;16.50;68.34;97034.39;1645390;85;22151;-79
2022/11/04 11:17:24;;;;;;;7.28;4.45;;;;;;;16.51;68.29;97025.05;1706240;82;21516;-79
2022/11/04 11:20:15;;;;;;;14.60;7.47;;;;;;;16.54;68.62;97026.52;1706847;82;21567;-82
2022/11/04 11:22:45;;;;;;;63.10;42.95;;;;;;;16.59;69.02;97020.03;1698074;82;21311;-83
2022/11/04 11:25:29;;;;;;;9.75;6.85;;;;;;;16.63;69.25;97014.89;1708181;82;21060;-83
2022/11/04 11:28:04;;;;;;;11.90;6.03;;;;;;;16.68;69.18;97019.91;1696266;82;20993;-82
2022/11/04 11:30:45;;;;;;;12.58;5.58;;;;;;;16.68;69.14;97017.97;1685513;84;21061;-79
2022/11/04 11:33:27;;;;;;;15.15;7.08;;;;;;;16.71;69.03;97023.34;1697688;82;21004;-80
2022/11/04 11:36:03;;;;;;;10.80;6.42;;;;;;;16.73;69.16;97015.59;1698631;82;21104;-80
2022/11/04 11:38:31;;;;;;;13.03;6.75;;;;;;;16.74;69.15;97015.81;1641487;85;21113;-83
2022/11/04 11:41:09;;;;;;;11.75;6.58;;;;;;;16.72;68.00;97014.00;1698240;82;21454;-83
2022/11/04 11:43:39;;;;;;;12.90;7.33;;;;;;;16.71;67.40;97015.14;1699330;82;21128;-83
2022/11/04 11:46:05;;;;;;;15.48;9.10;;;;;;;16.67;67.91;97010.91;1704486;82;21476;-80
2022/11/04 11:48:41;;;;;;;18.82;9.73;;;;;;;16.67;68.35;97004.64;1710513;82;21287;-79
2022/11/04 11:51:14;;;;;;;22.67;8.93;;;;;;;16.64;67.08;97004.73;1702820;83;21416;-83
2022/11/04 11:53:44;;;;;;;25.60;13.25;;;;;;;16.60;67.29;97002.48;1700901;83;21009;-79
2022/11/04 11:56:20;;;;;;;33.08;15.58;;;;;;;16.56;67.08;97011.13;1695075;82;21134;-83
2022/11/04 11:58:55;;;;;;;18.25;9.83;;;;;;;16.52;67.34;97006.13;1704872;82;21639;-83
2022/11/04 12:01:29;;;;;;;15.93;7.60;;;;;;;16.50;66.98;96998.84;1707903;82;21807;-83
2022/11/04 12:03:55;;;;;;;16.93;9.28;;;;;;;16.47;67.11;96985.27;1708581;82;21055;-79
2022/11/04 12:06:53;;;;;;;12.30;7.53;;;;;;;16.45;67.66;96988.92;1717328;82;20910;-79
2022/11/04 12:09:46;;;;;;;19.80;8.45;;;;;;;16.47;67.97;96992.10;1700200;82;21477;-79
2022/11/04 12:12:35;;;;;;;15.35;8.33;;;;;;;16.55;67.54;96989.03;1703742;82;21530;-83